sensor_id;sensor_type;location;lat;lon;timestamp;P1;durP1;ratioP1;P2;durP2;ratioP2
27893;SDS011;15240;50.812;4.792;2023-09-07T00:01:50;18.93;;;12.40;;
27893;SDS011;15240;50.812;4.792;2023-09-07T00:04:18;20.20;;;12.00;;
27893;SDS011;15240;50.812;4.792;2023-09-07T00:06:44;17.90;;;12.90;;
27893;SDS011;15240;50.812;4.792;2023-09-07T00:09:10;15.97;;;11.40;;
27893;SDS011;15240;50.812;4.792;2023-09-07T00:11:39;16.43;;;11.57;;
27893;SDS011;15240;50.812;4.792;2023-09-07T00:14:05;16.60;;;11.67;;
27893;SDS011;15240;50.812;4.792;2023-09-07T00:16:32;16.07;;;11.43;;
27893;SDS011;15240;50.812;4.792;2023-09-07T00:19:11;17.40;;;13.13;;
27893;SDS011;15240;50.812;4.792;2023-09-07T00:24:43;14.93;;;11.97;;
27893;SDS011;15240;50.812;4.792;2023-09-07T00:30:27;15.87;;;10.77;;
27893;SDS011;15240;50.812;4.792;2023-09-07T00:35:57;12.50;;;9.33;;
27893;SDS011;15240;50.812;4.792;2023-09-07T00:38:23;13.10;;;9.93;;
27893;SDS011;15240;50.812;4.792;2023-09-07T00:40:49;16.30;;;11.53;;
27893;SDS011;15240;50.812;4.792;2023-09-07T00:43:22;15.73;;;12.13;;
27893;SDS011;15240;50.812;4.792;2023-09-07T00:48:52;15.23;;;12.17;;
27893;SDS011;15240;50.812;4.792;2023-09-07T00:54:03;18.87;;;13.87;;
27893;SDS011;15240;50.812;4.792;2023-09-07T00:56:29;19.57;;;15.40;;
27893;SDS011;15240;50.812;4.792;2023-09-07T01:02:17;19.27;;;14.27;;
27893;SDS011;15240;50.812;4.792;2023-09-07T01:08:03;19.13;;;14.53;;
27893;SDS011;15240;50.812;4.792;2023-09-07T01:10:32;17.50;;;13.30;;
27893;SDS011;15240;50.812;4.792;2023-09-07T01:12:58;19.03;;;14.67;;
27893;SDS011;15240;50.812;4.792;2023-09-07T01:15:44;20.27;;;15.60;;
27893;SDS011;15240;50.812;4.792;2023-09-07T01:21:14;20.93;;;13.97;;
27893;SDS011;15240;50.812;4.792;2023-09-07T01:26:44;24.93;;;15.17;;
27893;SDS011;15240;50.812;4.792;2023-09-07T01:29:14;20.17;;;14.67;;
27893;SDS011;15240;50.812;4.792;2023-09-07T01:31:41;19.57;;;14.13;;
27893;SDS011;15240;50.812;4.792;2023-09-07T01:34:08;22.30;;;14.20;;
27893;SDS011;15240;50.812;4.792;2023-09-07T01:36:34;17.77;;;13.87;;
27893;SDS011;15240;50.812;4.792;2023-09-07T01:42:08;19.27;;;14.67;;
27893;SDS011;15240;50.812;4.792;2023-09-07T01:44:34;23.30;;;14.73;;
27893;SDS011;15240;50.812;4.792;2023-09-07T01:47:01;19.67;;;15.20;;
27893;SDS011;15240;50.812;4.792;2023-09-07T01:49:28;22.77;;;15.13;;
27893;SDS011;15240;50.812;4.792;2023-09-07T01:51:55;23.47;;;16.67;;
27893;SDS011;15240;50.812;4.792;2023-09-07T01:54:21;25.10;;;17.77;;
27893;SDS011;15240;50.812;4.792;2023-09-07T01:56:47;23.90;;;16.70;;
27893;SDS011;15240;50.812;4.792;2023-09-07T01:59:13;21.83;;;17.07;;
27893;SDS011;15240;50.812;4.792;2023-09-07T02:01:39;25.87;;;18.20;;
27893;SDS011;15240;50.812;4.792;2023-09-07T02:04:05;26.73;;;17.83;;
27893;SDS011;15240;50.812;4.792;2023-09-07T02:06:31;24.00;;;18.23;;
27893;SDS011;15240;50.812;4.792;2023-09-07T02:08:59;22.33;;;16.47;;
27893;SDS011;15240;50.812;4.792;2023-09-07T02:11:25;19.93;;;14.63;;
27893;SDS011;15240;50.812;4.792;2023-09-07T02:13:51;22.13;;;14.83;;
27893;SDS011;15240;50.812;4.792;2023-09-07T02:16:17;21.63;;;14.53;;
27893;SDS011;15240;50.812;4.792;2023-09-07T02:18:44;20.40;;;15.47;;
27893;SDS011;15240;50.812;4.792;2023-09-07T02:21:11;21.37;;;15.87;;
27893;SDS011;15240;50.812;4.792;2023-09-07T02:23:38;22.20;;;15.47;;
27893;SDS011;15240;50.812;4.792;2023-09-07T02:26:04;18.17;;;13.90;;
27893;SDS011;15240;50.812;4.792;2023-09-07T02:28:30;20.30;;;15.43;;
27893;SDS011;15240;50.812;4.792;2023-09-07T02:31:03;19.87;;;14.10;;
27893;SDS011;15240;50.812;4.792;2023-09-07T02:33:29;19.13;;;15.27;;
27893;SDS011;15240;50.812;4.792;2023-09-07T02:35:55;22.43;;;16.63;;
27893;SDS011;15240;50.812;4.792;2023-09-07T02:38:21;21.50;;;16.70;;
27893;SDS011;15240;50.812;4.792;2023-09-07T02:40:47;22.23;;;15.50;;
27893;SDS011;15240;50.812;4.792;2023-09-07T02:43:14;23.17;;;17.50;;
27893;SDS011;15240;50.812;4.792;2023-09-07T02:45:41;23.90;;;16.63;;
27893;SDS011;15240;50.812;4.792;2023-09-07T02:53:56;24.17;;;17.43;;
27893;SDS011;15240;50.812;4.792;2023-09-07T02:56:22;23.37;;;17.33;;
27893;SDS011;15240;50.812;4.792;2023-09-07T02:58:48;24.47;;;16.00;;
27893;SDS011;15240;50.812;4.792;2023-09-07T03:01:14;21.83;;;16.00;;
27893;SDS011;15240;50.812;4.792;2023-09-07T03:03:44;25.10;;;17.47;;
27893;SDS011;15240;50.812;4.792;2023-09-07T03:06:20;24.47;;;17.43;;
27893;SDS011;15240;50.812;4.792;2023-09-07T03:08:47;23.30;;;16.60;;
27893;SDS011;15240;50.812;4.792;2023-09-07T03:11:13;22.43;;;16.00;;
27893;SDS011;15240;50.812;4.792;2023-09-07T03:13:39;23.57;;;17.33;;
27893;SDS011;15240;50.812;4.792;2023-09-07T03:16:13;23.00;;;16.73;;
27893;SDS011;15240;50.812;4.792;2023-09-07T03:21:43;19.90;;;16.23;;
27893;SDS011;15240;50.812;4.792;2023-09-07T03:24:09;26.37;;;17.57;;
27893;SDS011;15240;50.812;4.792;2023-09-07T03:26:35;25.57;;;18.17;;
27893;SDS011;15240;50.812;4.792;2023-09-07T03:29:01;27.90;;;19.50;;
27893;SDS011;15240;50.812;4.792;2023-09-07T03:34:32;25.10;;;16.73;;
27893;SDS011;15240;50.812;4.792;2023-09-07T03:40:03;23.30;;;16.73;;
27893;SDS011;15240;50.812;4.792;2023-09-07T03:42:30;25.73;;;17.03;;
27893;SDS011;15240;50.812;4.792;2023-09-07T03:44:56;23.67;;;15.57;;
27893;SDS011;15240;50.812;4.792;2023-09-07T03:47:22;24.37;;;14.80;;
27893;SDS011;15240;50.812;4.792;2023-09-07T03:49:54;25.27;;;15.37;;
27893;SDS011;15240;50.812;4.792;2023-09-07T03:55:25;23.13;;;16.13;;
27893;SDS011;15240;50.812;4.792;2023-09-07T03:57:51;23.40;;;16.80;;
27893;SDS011;15240;50.812;4.792;2023-09-07T04:00:17;24.77;;;16.73;;
27893;SDS011;15240;50.812;4.792;2023-09-07T04:02:43;18.83;;;14.63;;
27893;SDS011;15240;50.812;4.792;2023-09-07T04:05:10;20.03;;;15.10;;
27893;SDS011;15240;50.812;4.792;2023-09-07T04:07:36;23.80;;;16.50;;
27893;SDS011;15240;50.812;4.792;2023-09-07T04:10:05;24.07;;;16.20;;
27893;SDS011;15240;50.812;4.792;2023-09-07T04:12:31;22.73;;;17.17;;
27893;SDS011;15240;50.812;4.792;2023-09-07T04:14:58;22.03;;;16.23;;
27893;SDS011;15240;50.812;4.792;2023-09-07T04:17:24;25.60;;;16.20;;
27893;SDS011;15240;50.812;4.792;2023-09-07T04:19:51;24.33;;;16.07;;
27893;SDS011;15240;50.812;4.792;2023-09-07T04:22:17;21.07;;;16.53;;
27893;SDS011;15240;50.812;4.792;2023-09-07T04:24:43;20.63;;;14.97;;
27893;SDS011;15240;50.812;4.792;2023-09-07T04:27:13;23.40;;;15.40;;
27893;SDS011;15240;50.812;4.792;2023-09-07T04:29:40;24.60;;;17.90;;
27893;SDS011;15240;50.812;4.792;2023-09-07T04:35:10;24.63;;;17.17;;
27893;SDS011;15240;50.812;4.792;2023-09-07T04:46:35;22.97;;;17.33;;
27893;SDS011;15240;50.812;4.792;2023-09-07T04:49:01;24.87;;;17.37;;
27893;SDS011;15240;50.812;4.792;2023-09-07T04:51:27;22.67;;;16.97;;
27893;SDS011;15240;50.812;4.792;2023-09-07T04:53:53;26.23;;;16.63;;
27893;SDS011;15240;50.812;4.792;2023-09-07T04:56:19;22.70;;;15.83;;
27893;SDS011;15240;50.812;4.792;2023-09-07T04:58:47;20.20;;;15.90;;
27893;SDS011;15240;50.812;4.792;2023-09-07T05:01:13;23.43;;;15.63;;
27893;SDS011;15240;50.812;4.792;2023-09-07T05:03:39;22.00;;;15.87;;
27893;SDS011;15240;50.812;4.792;2023-09-07T05:06:05;19.83;;;15.40;;
27893;SDS011;15240;50.812;4.792;2023-09-07T05:08:32;22.60;;;17.10;;
27893;SDS011;15240;50.812;4.792;2023-09-07T05:10:59;22.83;;;16.53;;
27893;SDS011;15240;50.812;4.792;2023-09-07T05:13:25;31.27;;;19.97;;
27893;SDS011;15240;50.812;4.792;2023-09-07T05:15:52;31.40;;;21.10;;
27893;SDS011;15240;50.812;4.792;2023-09-07T05:18:20;26.70;;;19.70;;
27893;SDS011;15240;50.812;4.792;2023-09-07T05:20:46;27.33;;;18.27;;
27893;SDS011;15240;50.812;4.792;2023-09-07T05:23:14;27.03;;;18.00;;
27893;SDS011;15240;50.812;4.792;2023-09-07T05:25:44;28.83;;;18.73;;
27893;SDS011;15240;50.812;4.792;2023-09-07T05:28:12;25.33;;;18.20;;
27893;SDS011;15240;50.812;4.792;2023-09-07T05:30:38;24.67;;;17.93;;
27893;SDS011;15240;50.812;4.792;2023-09-07T05:33:04;24.20;;;17.10;;
27893;SDS011;15240;50.812;4.792;2023-09-07T05:35:30;24.83;;;16.43;;
27893;SDS011;15240;50.812;4.792;2023-09-07T05:37:57;25.50;;;16.93;;
27893;SDS011;15240;50.812;4.792;2023-09-07T05:40:23;22.93;;;15.63;;
27893;SDS011;15240;50.812;4.792;2023-09-07T05:42:50;23.90;;;15.60;;
27893;SDS011;15240;50.812;4.792;2023-09-07T05:45:16;26.67;;;18.37;;
27893;SDS011;15240;50.812;4.792;2023-09-07T05:47:42;21.97;;;16.10;;
27893;SDS011;15240;50.812;4.792;2023-09-07T05:50:09;26.40;;;19.30;;
27893;SDS011;15240;50.812;4.792;2023-09-07T05:52:35;25.37;;;17.13;;
27893;SDS011;15240;50.812;4.792;2023-09-07T05:55:01;22.77;;;15.90;;
27893;SDS011;15240;50.812;4.792;2023-09-07T05:57:27;23.20;;;17.10;;
27893;SDS011;15240;50.812;4.792;2023-09-07T05:59:53;27.70;;;18.30;;
27893;SDS011;15240;50.812;4.792;2023-09-07T06:02:19;27.67;;;21.90;;
27893;SDS011;15240;50.812;4.792;2023-09-07T06:04:46;26.87;;;19.23;;
27893;SDS011;15240;50.812;4.792;2023-09-07T06:07:12;23.50;;;18.60;;
27893;SDS011;15240;50.812;4.792;2023-09-07T06:09:38;23.90;;;17.37;;
27893;SDS011;15240;50.812;4.792;2023-09-07T06:12:04;19.83;;;15.57;;
27893;SDS011;15240;50.812;4.792;2023-09-07T06:14:30;18.27;;;13.70;;
27893;SDS011;15240;50.812;4.792;2023-09-07T06:16:56;22.67;;;14.13;;
27893;SDS011;15240;50.812;4.792;2023-09-07T06:19:22;18.30;;;14.27;;
27893;SDS011;15240;50.812;4.792;2023-09-07T06:21:49;16.15;;;13.02;;
27893;SDS011;15240;50.812;4.792;2023-09-07T06:24:15;18.73;;;13.27;;
27893;SDS011;15240;50.812;4.792;2023-09-07T06:26:41;15.10;;;12.00;;
27893;SDS011;15240;50.812;4.792;2023-09-07T06:29:10;17.35;;;12.35;;
27893;SDS011;15240;50.812;4.792;2023-09-07T06:31:36;16.60;;;12.80;;
27893;SDS011;15240;50.812;4.792;2023-09-07T06:34:02;15.55;;;12.65;;
27893;SDS011;15240;50.812;4.792;2023-09-07T06:36:29;17.35;;;12.65;;
27893;SDS011;15240;50.812;4.792;2023-09-07T06:38:56;15.02;;;12.30;;
27893;SDS011;15240;50.812;4.792;2023-09-07T06:41:22;16.48;;;12.80;;
27893;SDS011;15240;50.812;4.792;2023-09-07T06:43:48;15.07;;;12.30;;
27893;SDS011;15240;50.812;4.792;2023-09-07T06:46:14;14.55;;;12.82;;
27893;SDS011;15240;50.812;4.792;2023-09-07T06:48:40;13.50;;;11.73;;
27893;SDS011;15240;50.812;4.792;2023-09-07T06:51:06;14.70;;;12.82;;
27893;SDS011;15240;50.812;4.792;2023-09-07T06:53:33;14.77;;;12.48;;
27893;SDS011;15240;50.812;4.792;2023-09-07T06:56:02;14.27;;;12.07;;
27893;SDS011;15240;50.812;4.792;2023-09-07T06:58:29;15.23;;;12.73;;
27893;SDS011;15240;50.812;4.792;2023-09-07T07:00:57;17.30;;;13.23;;
27893;SDS011;15240;50.812;4.792;2023-09-07T07:03:27;16.52;;;13.00;;
27893;SDS011;15240;50.812;4.792;2023-09-07T07:05:53;20.05;;;12.98;;
27893;SDS011;15240;50.812;4.792;2023-09-07T07:08:21;16.92;;;12.80;;
27893;SDS011;15240;50.812;4.792;2023-09-07T07:10:47;16.30;;;12.77;;
27893;SDS011;15240;50.812;4.792;2023-09-07T07:13:13;15.70;;;13.10;;
27893;SDS011;15240;50.812;4.792;2023-09-07T07:15:39;18.38;;;12.93;;
27893;SDS011;15240;50.812;4.792;2023-09-07T07:18:05;15.77;;;12.57;;
27893;SDS011;15240;50.812;4.792;2023-09-07T07:20:37;17.67;;;12.95;;
27893;SDS011;15240;50.812;4.792;2023-09-07T07:23:03;16.00;;;13.52;;
27893;SDS011;15240;50.812;4.792;2023-09-07T07:25:31;17.42;;;13.73;;
27893;SDS011;15240;50.812;4.792;2023-09-07T07:27:58;18.42;;;14.68;;
27893;SDS011;15240;50.812;4.792;2023-09-07T07:30:28;19.38;;;14.73;;
27893;SDS011;15240;50.812;4.792;2023-09-07T07:32:56;16.70;;;13.90;;
27893;SDS011;15240;50.812;4.792;2023-09-07T07:35:23;17.40;;;13.80;;
27893;SDS011;15240;50.812;4.792;2023-09-07T07:37:49;19.77;;;14.27;;
27893;SDS011;15240;50.812;4.792;2023-09-07T07:40:18;20.27;;;13.18;;
27893;SDS011;15240;50.812;4.792;2023-09-07T07:42:45;18.40;;;13.38;;
27893;SDS011;15240;50.812;4.792;2023-09-07T07:45:11;18.15;;;13.77;;
27893;SDS011;15240;50.812;4.792;2023-09-07T07:47:37;18.55;;;13.38;;
27893;SDS011;15240;50.812;4.792;2023-09-07T07:50:04;19.27;;;13.75;;
27893;SDS011;15240;50.812;4.792;2023-09-07T07:52:30;19.23;;;13.10;;
27893;SDS011;15240;50.812;4.792;2023-09-07T07:54:56;18.70;;;12.30;;
27893;SDS011;15240;50.812;4.792;2023-09-07T07:57:22;19.52;;;12.35;;
27893;SDS011;15240;50.812;4.792;2023-09-07T07:59:48;19.73;;;12.85;;
27893;SDS011;15240;50.812;4.792;2023-09-07T08:02:14;18.92;;;13.48;;
27893;SDS011;15240;50.812;4.792;2023-09-07T08:04:40;18.77;;;12.73;;
27893;SDS011;15240;50.812;4.792;2023-09-07T08:07:06;15.02;;;12.88;;
27893;SDS011;15240;50.812;4.792;2023-09-07T08:09:33;18.25;;;12.35;;
27893;SDS011;15240;50.812;4.792;2023-09-07T08:11:59;16.85;;;11.30;;
27893;SDS011;15240;50.812;4.792;2023-09-07T08:14:29;17.33;;;11.45;;
27893;SDS011;15240;50.812;4.792;2023-09-07T08:16:56;14.40;;;11.25;;
27893;SDS011;15240;50.812;4.792;2023-09-07T08:19:22;15.07;;;11.38;;
27893;SDS011;15240;50.812;4.792;2023-09-07T08:21:48;17.20;;;12.27;;
27893;SDS011;15240;50.812;4.792;2023-09-07T08:24:14;15.98;;;11.23;;
27893;SDS011;15240;50.812;4.792;2023-09-07T08:26:40;11.95;;;10.73;;
27893;SDS011;15240;50.812;4.792;2023-09-07T08:29:07;15.05;;;10.65;;
27893;SDS011;15240;50.812;4.792;2023-09-07T08:31:34;12.52;;;9.82;;
27893;SDS011;15240;50.812;4.792;2023-09-07T08:34:01;12.40;;;10.10;;
27893;SDS011;15240;50.812;4.792;2023-09-07T08:36:28;13.23;;;10.02;;
27893;SDS011;15240;50.812;4.792;2023-09-07T08:38:57;14.15;;;10.77;;
27893;SDS011;15240;50.812;4.792;2023-09-07T08:41:30;12.98;;;10.27;;
27893;SDS011;15240;50.812;4.792;2023-09-07T08:43:58;12.07;;;10.77;;
27893;SDS011;15240;50.812;4.792;2023-09-07T08:46:25;16.17;;;9.88;;
27893;SDS011;15240;50.812;4.792;2023-09-07T08:48:52;11.95;;;10.63;;
27893;SDS011;15240;50.812;4.792;2023-09-07T08:51:20;12.05;;;9.32;;
27893;SDS011;15240;50.812;4.792;2023-09-07T08:53:47;11.75;;;9.43;;
27893;SDS011;15240;50.812;4.792;2023-09-07T08:56:14;17.27;;;9.88;;
27893;SDS011;15240;50.812;4.792;2023-09-07T08:58:40;12.18;;;9.23;;
27893;SDS011;15240;50.812;4.792;2023-09-07T09:01:06;13.35;;;8.82;;
27893;SDS011;15240;50.812;4.792;2023-09-07T09:03:34;18.42;;;9.18;;
27893;SDS011;15240;50.812;4.792;2023-09-07T09:06:00;11.32;;;8.20;;
27893;SDS011;15240;50.812;4.792;2023-09-07T09:08:27;9.85;;;7.45;;
27893;SDS011;15240;50.812;4.792;2023-09-07T09:10:59;11.85;;;7.43;;
27893;SDS011;15240;50.812;4.792;2023-09-07T09:13:29;9.25;;;7.43;;
27893;SDS011;15240;50.812;4.792;2023-09-07T09:15:55;10.18;;;7.15;;
27893;SDS011;15240;50.812;4.792;2023-09-07T09:18:21;10.70;;;7.00;;
27893;SDS011;15240;50.812;4.792;2023-09-07T09:20:47;7.63;;;6.82;;
27893;SDS011;15240;50.812;4.792;2023-09-07T09:23:14;11.68;;;6.97;;
27893;SDS011;15240;50.812;4.792;2023-09-07T09:25:40;10.40;;;8.00;;
27893;SDS011;15240;50.812;4.792;2023-09-07T09:28:08;11.50;;;7.25;;
27893;SDS011;15240;50.812;4.792;2023-09-07T09:30:35;10.02;;;7.35;;
27893;SDS011;15240;50.812;4.792;2023-09-07T09:33:01;8.88;;;6.78;;
27893;SDS011;15240;50.812;4.792;2023-09-07T09:35:28;10.23;;;6.30;;
27893;SDS011;15240;50.812;4.792;2023-09-07T09:37:55;7.90;;;5.57;;
27893;SDS011;15240;50.812;4.792;2023-09-07T09:40:21;8.02;;;5.35;;
27893;SDS011;15240;50.812;4.792;2023-09-07T09:42:47;7.30;;;5.30;;
27893;SDS011;15240;50.812;4.792;2023-09-07T09:45:13;10.55;;;5.90;;
27893;SDS011;15240;50.812;4.792;2023-09-07T09:47:42;10.13;;;5.50;;
27893;SDS011;15240;50.812;4.792;2023-09-07T09:50:09;9.07;;;5.55;;
27893;SDS011;15240;50.812;4.792;2023-09-07T09:52:36;8.23;;;4.97;;
27893;SDS011;15240;50.812;4.792;2023-09-07T09:55:03;5.90;;;4.50;;
27893;SDS011;15240;50.812;4.792;2023-09-07T09:57:31;7.55;;;5.25;;
27893;SDS011;15240;50.812;4.792;2023-09-07T09:59:58;5.53;;;4.72;;
27893;SDS011;15240;50.812;4.792;2023-09-07T10:02:24;6.65;;;5.10;;
27893;SDS011;15240;50.812;4.792;2023-09-07T10:04:51;7.53;;;4.43;;
27893;SDS011;15240;50.812;4.792;2023-09-07T10:07:18;7.07;;;4.63;;
27893;SDS011;15240;50.812;4.792;2023-09-07T10:09:45;7.45;;;4.63;;
27893;SDS011;15240;50.812;4.792;2023-09-07T10:12:11;7.65;;;4.78;;
27893;SDS011;15240;50.812;4.792;2023-09-07T10:14:41;6.63;;;4.60;;
27893;SDS011;15240;50.812;4.792;2023-09-07T10:17:09;8.27;;;4.55;;
27893;SDS011;15240;50.812;4.792;2023-09-07T10:19:35;6.55;;;4.90;;
27893;SDS011;15240;50.812;4.792;2023-09-07T10:22:03;9.60;;;4.93;;
27893;SDS011;15240;50.812;4.792;2023-09-07T10:24:29;8.93;;;4.68;;
27893;SDS011;15240;50.812;4.792;2023-09-07T10:29:28;6.10;;;4.82;;
27893;SDS011;15240;50.812;4.792;2023-09-07T10:31:54;8.93;;;5.45;;
27893;SDS011;15240;50.812;4.792;2023-09-07T10:34:21;8.35;;;4.55;;
27893;SDS011;15240;50.812;4.792;2023-09-07T10:36:47;6.72;;;3.88;;
27893;SDS011;15240;50.812;4.792;2023-09-07T10:39:18;7.50;;;5.47;;
27893;SDS011;15240;50.812;4.792;2023-09-07T10:41:44;7.30;;;4.97;;
27893;SDS011;15240;50.812;4.792;2023-09-07T10:44:11;7.95;;;5.18;;
27893;SDS011;15240;50.812;4.792;2023-09-07T10:46:38;7.80;;;5.50;;
27893;SDS011;15240;50.812;4.792;2023-09-07T10:49:06;8.20;;;5.20;;
27893;SDS011;15240;50.812;4.792;2023-09-07T10:51:38;6.45;;;4.95;;
27893;SDS011;15240;50.812;4.792;2023-09-07T10:54:13;7.78;;;4.60;;
27893;SDS011;15240;50.812;4.792;2023-09-07T10:56:39;8.32;;;5.10;;
27893;SDS011;15240;50.812;4.792;2023-09-07T10:59:05;6.35;;;5.00;;
27893;SDS011;15240;50.812;4.792;2023-09-07T11:01:31;6.85;;;5.00;;
27893;SDS011;15240;50.812;4.792;2023-09-07T11:03:57;6.15;;;5.38;;
27893;SDS011;15240;50.812;4.792;2023-09-07T11:06:23;6.40;;;5.38;;
27893;SDS011;15240;50.812;4.792;2023-09-07T11:08:50;8.07;;;4.55;;
27893;SDS011;15240;50.812;4.792;2023-09-07T11:11:16;6.88;;;5.50;;
27893;SDS011;15240;50.812;4.792;2023-09-07T11:13:42;11.50;;;5.78;;
27893;SDS011;15240;50.812;4.792;2023-09-07T11:16:08;7.63;;;5.40;;
27893;SDS011;15240;50.812;4.792;2023-09-07T11:18:35;7.82;;;4.82;;
27893;SDS011;15240;50.812;4.792;2023-09-07T11:21:01;9.10;;;5.05;;
27893;SDS011;15240;50.812;4.792;2023-09-07T11:23:32;7.32;;;4.90;;
27893;SDS011;15240;50.812;4.792;2023-09-07T11:26:05;6.28;;;5.22;;
27893;SDS011;15240;50.812;4.792;2023-09-07T11:28:31;7.80;;;5.78;;
27893;SDS011;15240;50.812;4.792;2023-09-07T11:30:58;9.35;;;5.93;;
27893;SDS011;15240;50.812;4.792;2023-09-07T11:33:24;6.47;;;5.63;;
27893;SDS011;15240;50.812;4.792;2023-09-07T11:35:53;7.82;;;5.10;;
27893;SDS011;15240;50.812;4.792;2023-09-07T11:38:20;10.20;;;5.20;;
27893;SDS011;15240;50.812;4.792;2023-09-07T11:40:46;9.05;;;5.72;;
27893;SDS011;15240;50.812;4.792;2023-09-07T11:43:12;10.23;;;5.85;;
27893;SDS011;15240;50.812;4.792;2023-09-07T11:45:42;7.90;;;5.88;;
27893;SDS011;15240;50.812;4.792;2023-09-07T11:48:09;10.73;;;6.15;;
27893;SDS011;15240;50.812;4.792;2023-09-07T11:50:36;11.18;;;6.30;;
27893;SDS011;15240;50.812;4.792;2023-09-07T11:53:03;8.05;;;5.78;;
27893;SDS011;15240;50.812;4.792;2023-09-07T11:55:29;7.65;;;5.03;;
27893;SDS011;15240;50.812;4.792;2023-09-07T11:57:55;6.75;;;5.18;;
27893;SDS011;15240;50.812;4.792;2023-09-07T12:00:21;5.97;;;4.82;;
27893;SDS011;15240;50.812;4.792;2023-09-07T12:02:48;7.45;;;5.43;;
27893;SDS011;15240;50.812;4.792;2023-09-07T12:05:14;8.00;;;5.13;;
27893;SDS011;15240;50.812;4.792;2023-09-07T12:07:41;9.23;;;5.65;;
27893;SDS011;15240;50.812;4.792;2023-09-07T12:10:08;8.07;;;5.05;;
27893;SDS011;15240;50.812;4.792;2023-09-07T12:12:38;7.13;;;5.13;;
27893;SDS011;15240;50.812;4.792;2023-09-07T12:15:05;10.10;;;5.82;;
27893;SDS011;15240;50.812;4.792;2023-09-07T12:17:31;9.77;;;5.50;;
27893;SDS011;15240;50.812;4.792;2023-09-07T12:19:57;9.10;;;5.68;;
27893;SDS011;15240;50.812;4.792;2023-09-07T12:22:23;7.00;;;5.10;;
27893;SDS011;15240;50.812;4.792;2023-09-07T12:24:49;8.05;;;5.05;;
27893;SDS011;15240;50.812;4.792;2023-09-07T12:27:15;6.40;;;4.90;;
27893;SDS011;15240;50.812;4.792;2023-09-07T12:29:42;7.55;;;5.07;;
27893;SDS011;15240;50.812;4.792;2023-09-07T12:32:08;6.88;;;4.85;;
27893;SDS011;15240;50.812;4.792;2023-09-07T12:34:34;7.57;;;5.00;;
27893;SDS011;15240;50.812;4.792;2023-09-07T12:37:00;10.15;;;4.90;;
27893;SDS011;15240;50.812;4.792;2023-09-07T12:39:26;7.47;;;5.00;;
27893;SDS011;15240;50.812;4.792;2023-09-07T12:41:53;5.70;;;4.57;;
27893;SDS011;15240;50.812;4.792;2023-09-07T12:44:19;5.60;;;4.63;;
27893;SDS011;15240;50.812;4.792;2023-09-07T12:46:46;10.27;;;5.30;;
27893;SDS011;15240;50.812;4.792;2023-09-07T12:49:12;7.78;;;5.30;;
27893;SDS011;15240;50.812;4.792;2023-09-07T12:51:40;9.48;;;5.03;;
27893;SDS011;15240;50.812;4.792;2023-09-07T12:54:06;6.97;;;4.97;;
27893;SDS011;15240;50.812;4.792;2023-09-07T12:56:32;9.10;;;5.30;;
27893;SDS011;15240;50.812;4.792;2023-09-07T12:58:58;6.47;;;4.43;;
27893;SDS011;15240;50.812;4.792;2023-09-07T13:01:25;7.07;;;5.00;;
27893;SDS011;15240;50.812;4.792;2023-09-07T13:03:51;8.85;;;4.80;;
27893;SDS011;15240;50.812;4.792;2023-09-07T13:06:17;7.38;;;4.65;;
27893;SDS011;15240;50.812;4.792;2023-09-07T13:08:44;8.60;;;4.90;;
27893;SDS011;15240;50.812;4.792;2023-09-07T13:11:10;7.53;;;5.20;;
27893;SDS011;15240;50.812;4.792;2023-09-07T13:13:36;6.60;;;4.57;;
27893;SDS011;15240;50.812;4.792;2023-09-07T13:16:03;8.30;;;5.03;;
27893;SDS011;15240;50.812;4.792;2023-09-07T13:18:29;6.88;;;4.38;;
27893;SDS011;15240;50.812;4.792;2023-09-07T13:20:57;6.85;;;4.65;;
27893;SDS011;15240;50.812;4.792;2023-09-07T13:23:26;7.28;;;4.85;;
27893;SDS011;15240;50.812;4.792;2023-09-07T13:25:52;7.20;;;5.28;;
27893;SDS011;15240;50.812;4.792;2023-09-07T13:28:18;8.55;;;4.95;;
27893;SDS011;15240;50.812;4.792;2023-09-07T13:30:44;6.97;;;5.13;;
27893;SDS011;15240;50.812;4.792;2023-09-07T13:33:10;10.60;;;4.68;;
27893;SDS011;15240;50.812;4.792;2023-09-07T13:35:37;8.38;;;4.85;;
27893;SDS011;15240;50.812;4.792;2023-09-07T13:38:04;7.78;;;5.32;;
27893;SDS011;15240;50.812;4.792;2023-09-07T13:40:30;8.02;;;4.90;;
27893;SDS011;15240;50.812;4.792;2023-09-07T13:42:56;5.90;;;4.70;;
27893;SDS011;15240;50.812;4.792;2023-09-07T13:45:22;8.90;;;4.60;;
27893;SDS011;15240;50.812;4.792;2023-09-07T13:47:48;7.80;;;4.95;;
27893;SDS011;15240;50.812;4.792;2023-09-07T13:50:15;7.47;;;4.55;;
27893;SDS011;15240;50.812;4.792;2023-09-07T13:52:41;7.45;;;5.07;;
27893;SDS011;15240;50.812;4.792;2023-09-07T13:55:07;5.53;;;4.68;;
27893;SDS011;15240;50.812;4.792;2023-09-07T13:57:33;9.68;;;4.85;;
27893;SDS011;15240;50.812;4.792;2023-09-07T13:59:59;7.53;;;4.93;;
27893;SDS011;15240;50.812;4.792;2023-09-07T14:02:26;8.02;;;4.50;;
27893;SDS011;15240;50.812;4.792;2023-09-07T14:04:52;6.53;;;4.57;;
27893;SDS011;15240;50.812;4.792;2023-09-07T14:07:18;7.22;;;4.75;;
27893;SDS011;15240;50.812;4.792;2023-09-07T14:09:44;7.80;;;5.40;;
27893;SDS011;15240;50.812;4.792;2023-09-07T14:12:10;9.43;;;4.50;;
27893;SDS011;15240;50.812;4.792;2023-09-07T14:14:37;7.05;;;4.82;;
27893;SDS011;15240;50.812;4.792;2023-09-07T14:17:03;8.85;;;5.13;;
27893;SDS011;15240;50.812;4.792;2023-09-07T14:19:31;6.90;;;4.97;;
27893;SDS011;15240;50.812;4.792;2023-09-07T14:21:57;9.60;;;4.75;;
27893;SDS011;15240;50.812;4.792;2023-09-07T14:24:23;8.27;;;5.38;;
27893;SDS011;15240;50.812;4.792;2023-09-07T14:26:50;7.47;;;4.82;;
27893;SDS011;15240;50.812;4.792;2023-09-07T14:29:16;6.47;;;4.78;;
27893;SDS011;15240;50.812;4.792;2023-09-07T14:31:42;9.77;;;5.00;;
27893;SDS011;15240;50.812;4.792;2023-09-07T14:34:08;7.13;;;4.90;;
27893;SDS011;15240;50.812;4.792;2023-09-07T14:36:35;5.38;;;4.82;;
27893;SDS011;15240;50.812;4.792;2023-09-07T14:39:02;6.43;;;4.60;;
27893;SDS011;15240;50.812;4.792;2023-09-07T14:41:28;9.05;;;5.18;;
27893;SDS011;15240;50.812;4.792;2023-09-07T14:43:55;9.18;;;5.13;;
27893;SDS011;15240;50.812;4.792;2023-09-07T14:46:21;6.95;;;4.60;;
27893;SDS011;15240;50.812;4.792;2023-09-07T14:48:49;5.53;;;4.78;;
27893;SDS011;15240;50.812;4.792;2023-09-07T14:51:16;5.65;;;4.70;;
27893;SDS011;15240;50.812;4.792;2023-09-07T14:53:42;8.68;;;5.07;;
27893;SDS011;15240;50.812;4.792;2023-09-07T14:56:09;9.07;;;4.95;;
27893;SDS011;15240;50.812;4.792;2023-09-07T14:58:35;4.90;;;4.40;;
27893;SDS011;15240;50.812;4.792;2023-09-07T15:01:01;8.05;;;4.85;;
27893;SDS011;15240;50.812;4.792;2023-09-07T15:03:28;9.25;;;4.68;;
27893;SDS011;15240;50.812;4.792;2023-09-07T15:05:54;4.70;;;4.20;;
27893;SDS011;15240;50.812;4.792;2023-09-07T15:08:21;7.10;;;4.45;;
27893;SDS011;15240;50.812;4.792;2023-09-07T15:10:47;8.50;;;4.78;;
27893;SDS011;15240;50.812;4.792;2023-09-07T15:13:14;8.98;;;4.85;;
27893;SDS011;15240;50.812;4.792;2023-09-07T15:15:40;7.60;;;4.25;;
27893;SDS011;15240;50.812;4.792;2023-09-07T15:18:07;9.10;;;4.57;;
27893;SDS011;15240;50.812;4.792;2023-09-07T15:20:33;6.93;;;4.75;;
27893;SDS011;15240;50.812;4.792;2023-09-07T15:22:59;6.80;;;4.97;;
27893;SDS011;15240;50.812;4.792;2023-09-07T15:25:25;8.90;;;5.13;;
27893;SDS011;15240;50.812;4.792;2023-09-07T15:27:51;5.85;;;4.90;;
27893;SDS011;15240;50.812;4.792;2023-09-07T15:30:18;6.97;;;5.10;;
27893;SDS011;15240;50.812;4.792;2023-09-07T15:32:44;5.47;;;4.97;;
27893;SDS011;15240;50.812;4.792;2023-09-07T15:35:10;7.18;;;5.00;;